createdAt,value
2022-07-31T00:01:53.210Z,23.38
2022-07-31T00:04:19.568Z,23.38
2022-07-31T00:06:45.938Z,23.37
2022-07-31T00:09:20.509Z,23.36
2022-07-31T00:11:38.747Z,23.34
2022-07-31T00:14:05.107Z,23.25
2022-07-31T00:16:31.498Z,23.24
2022-07-31T00:18:58.105Z,23.20
2022-07-31T00:21:24.267Z,23.14
2022-07-31T00:23:50.630Z,23.19
2022-07-31T00:26:16.994Z,23.28
2022-07-31T00:28:43.363Z,23.33
2022-07-31T00:31:09.794Z,23.33
2022-07-31T00:33:36.176Z,23.30
2022-07-31T00:36:02.542Z,23.32
2022-07-31T00:38:28.995Z,23.32
2022-07-31T00:40:55.425Z,23.21
2022-07-31T00:43:21.797Z,23.23
2022-07-31T00:45:56.266Z,23.24
2022-07-31T00:48:14.533Z,23.26
2022-07-31T00:50:40.953Z,23.30
2022-07-31T00:53:07.332Z,23.22
2022-07-31T00:55:33.715Z,23.06
2022-07-31T00:58:00.130Z,22.97
2022-07-31T01:00:26.494Z,22.89
2022-07-31T01:02:52.860Z,22.81
2022-07-31T01:05:19.230Z,22.75
2022-07-31T01:07:45.594Z,22.73
2022-07-31T01:10:11.984Z,22.80
2022-07-31T01:12:38.344Z,22.80
2022-07-31T01:15:04.779Z,22.81
2022-07-31T01:17:31.134Z,22.79
2022-07-31T01:19:57.503Z,22.77
2022-07-31T01:22:33.881Z,22.82
2022-07-31T01:24:50.274Z,22.88
2022-07-31T01:27:16.665Z,22.96
2022-07-31T01:29:43.023Z,22.93
2022-07-31T01:32:09.406Z,22.95
2022-07-31T01:34:35.828Z,23.02
2022-07-31T01:37:02.445Z,23.05
2022-07-31T01:39:33.866Z,23.03
2022-07-31T01:41:55.022Z,23.02
2022-07-31T01:44:21.456Z,23.03
2022-07-31T01:46:47.888Z,23.04
2022-07-31T01:49:14.317Z,23.06
2022-07-31T01:51:40.639Z,23.10
2022-07-31T01:54:07.004Z,23.12
2022-07-31T01:56:33.419Z,23.07
2022-07-31T01:58:59.788Z,23.07
2022-07-31T02:01:27.356Z,23.08
2022-07-31T02:03:56.197Z,23.05
2022-07-31T02:06:18.994Z,23.03
2022-07-31T02:08:45.377Z,22.95
2022-07-31T02:11:11.783Z,22.83
2022-07-31T02:13:38.174Z,22.74
2022-07-31T02:16:05.043Z,22.79
2022-07-31T02:18:31.007Z,22.84
2022-07-31T02:20:57.371Z,22.86
2022-07-31T02:23:23.875Z,22.89
2022-07-31T02:25:50.256Z,22.90
2022-07-31T02:28:16.732Z,22.87
2022-07-31T02:30:43.173Z,22.87
2022-07-31T02:33:09.607Z,22.82
2022-07-31T02:35:35.991Z,22.75
2022-07-31T02:38:02.354Z,22.79
2022-07-31T02:40:28.725Z,22.85
2022-07-31T02:42:55.237Z,22.83
2022-07-31T02:45:21.614Z,22.77
2022-07-31T02:47:47.981Z,22.64
2022-07-31T02:50:14.431Z,22.54
2022-07-31T02:52:40.799Z,22.46
2022-07-31T02:55:07.207Z,22.57
2022-07-31T02:57:33.573Z,22.60
2022-07-31T03:00:00.074Z,22.56
2022-07-31T03:02:36.894Z,22.56
2022-07-31T03:04:52.806Z,22.54
2022-07-31T03:07:19.193Z,22.48
2022-07-31T03:09:45.550Z,22.45
2022-07-31T03:12:11.960Z,22.45
2022-07-31T03:14:38.312Z,22.47
2022-07-31T03:17:04.788Z,22.49
2022-07-31T03:19:31.219Z,22.53
2022-07-31T03:21:57.605Z,22.92
2022-07-31T03:24:23.991Z,23.43
2022-07-31T03:26:50.361Z,23.50
2022-07-31T03:29:41.161Z,23.61
2022-07-31T03:31:43.146Z,24.00
2022-07-31T03:34:09.612Z,24.34
2022-07-31T03:36:35.996Z,24.50
2022-07-31T03:39:02.358Z,24.57
2022-07-31T03:41:28.809Z,24.62
2022-07-31T03:43:55.176Z,24.66
2022-07-31T03:46:21.568Z,24.55
2022-07-31T03:48:48.023Z,24.45
2022-07-31T03:51:14.333Z,24.54
2022-07-31T03:53:40.687Z,24.57
2022-07-31T03:56:07.073Z,24.36
2022-07-31T03:58:33.440Z,24.25
2022-07-31T04:00:59.838Z,24.20
2022-07-31T04:03:26.194Z,24.05
2022-07-31T04:05:52.577Z,24.15
2022-07-31T04:08:19.061Z,24.33
2022-07-31T04:10:45.425Z,24.43
2022-07-31T04:13:11.796Z,24.45
2022-07-31T04:15:38.183Z,24.51
2022-07-31T04:18:04.555Z,24.52
2022-07-31T04:20:30.939Z,24.68
2022-07-31T04:22:57.369Z,24.76
2022-07-31T04:25:23.753Z,24.84
2022-07-31T04:27:50.115Z,24.93
2022-07-31T04:30:16.552Z,25.03
2022-07-31T04:32:42.955Z,25.01
2022-07-31T04:35:09.343Z,24.99
2022-07-31T04:37:35.747Z,25.12
2022-07-31T04:40:02.113Z,25.06
2022-07-31T04:42:28.511Z,25.00
2022-07-31T04:44:54.869Z,25.10
2022-07-31T04:47:21.258Z,25.35
2022-07-31T04:49:47.705Z,25.45
2022-07-31T04:52:14.093Z,25.55
2022-07-31T04:54:40.462Z,25.53
2022-07-31T04:57:06.866Z,25.54
2022-07-31T04:59:59.485Z,25.52
2022-07-31T05:01:59.892Z,25.40
2022-07-31T05:04:26.160Z,25.33
2022-07-31T05:06:52.532Z,25.15
2022-07-31T05:09:19.622Z,25.03
2022-07-31T05:11:45.399Z,25.03
2022-07-31T05:14:11.771Z,25.05
2022-07-31T05:16:38.266Z,25.18
2022-07-31T05:19:04.637Z,25.17
2022-07-31T05:21:31.006Z,25.07
2022-07-31T05:23:57.368Z,24.96
2022-07-31T05:26:23.738Z,25.03
2022-07-31T05:28:50.997Z,25.25
2022-07-31T05:31:16.659Z,25.24
2022-07-31T05:36:09.219Z,25.36
2022-07-31T05:38:35.650Z,25.37
2022-07-31T05:41:02.025Z,25.36
2022-07-31T05:43:28.412Z,25.44
2022-07-31T05:45:54.849Z,25.48
2022-07-31T05:48:21.233Z,25.39
2022-07-31T05:50:47.638Z,25.52
2022-07-31T05:53:14.000Z,25.65
2022-07-31T05:55:40.370Z,26.01
2022-07-31T05:58:06.806Z,26.12
2022-07-31T06:00:33.213Z,26.25
2022-07-31T06:02:59.533Z,26.35
2022-07-31T06:05:25.902Z,26.30
2022-07-31T06:07:52.293Z,26.14
2022-07-31T06:10:18.767Z,26.25
2022-07-31T06:12:45.231Z,26.22
2022-07-31T06:15:11.652Z,26.27
2022-07-31T06:17:43.725Z,26.10
2022-07-31T06:20:04.442Z,26.14
2022-07-31T06:22:30.798Z,26.37
2022-07-31T06:24:57.256Z,26.50
2022-07-31T06:27:33.631Z,26.59
2022-07-31T06:29:50.099Z,26.71
2022-07-31T06:32:16.497Z,27.11
2022-07-31T06:34:42.898Z,27.55
2022-07-31T06:37:09.257Z,27.71
2022-07-31T06:39:54.715Z,27.70
2022-07-31T06:42:02.231Z,27.88
2022-07-31T06:44:28.420Z,28.23
2022-07-31T06:46:54.854Z,28.29
2022-07-31T06:49:21.319Z,28.22
2022-07-31T06:51:47.655Z,28.34
2022-07-31T06:54:14.025Z,28.55
2022-07-31T06:56:40.395Z,28.90
2022-07-31T06:59:06.816Z,29.14
2022-07-31T07:01:33.234Z,29.28
2022-07-31T07:03:59.580Z,29.46
2022-07-31T07:06:26.013Z,29.55
2022-07-31T07:08:52.554Z,29.42
2022-07-31T07:11:18.911Z,29.16
2022-07-31T07:13:46.838Z,29.01
2022-07-31T07:16:12.691Z,28.92
2022-07-31T07:18:39.066Z,28.82
2022-07-31T07:21:05.531Z,29.20
2022-07-31T07:23:31.956Z,29.52
2022-07-31T07:25:58.359Z,29.50
2022-07-31T07:28:30.255Z,29.43
2022-07-31T07:30:51.134Z,29.49
2022-07-31T07:33:40.902Z,29.76
2022-07-31T07:35:43.905Z,29.96
2022-07-31T07:38:10.294Z,30.16
2022-07-31T07:40:36.680Z,30.08
2022-07-31T07:43:03.445Z,30.06
2022-07-31T07:45:29.487Z,30.31
2022-07-31T07:48:06.025Z,30.58
2022-07-31T07:50:22.401Z,30.85
2022-07-31T07:52:48.701Z,30.93
2022-07-31T07:55:15.113Z,30.90
2022-07-31T07:57:41.496Z,30.52
2022-07-31T08:00:07.870Z,29.96
2022-07-31T08:02:34.302Z,29.62
2022-07-31T08:05:00.719Z,29.64
2022-07-31T08:07:42.245Z,29.77
2022-07-31T08:09:53.479Z,29.74
2022-07-31T08:12:19.871Z,29.62
2022-07-31T08:14:46.264Z,29.71
2022-07-31T08:17:12.629Z,29.66
2022-07-31T08:19:39.105Z,29.48
2022-07-31T08:22:06.982Z,29.40
2022-07-31T08:24:32.983Z,29.62
2022-07-31T08:26:59.358Z,29.87
2022-07-31T08:29:27.527Z,29.73
2022-07-31T08:31:52.103Z,29.64
2022-07-31T08:34:31.711Z,29.64
2022-07-31T08:36:44.919Z,29.88
2022-07-31T08:39:11.282Z,29.90
2022-07-31T08:41:37.662Z,29.74
2022-07-31T08:44:04.665Z,29.66
2022-07-31T08:46:30.477Z,29.57
2022-07-31T08:48:56.934Z,29.55
2022-07-31T08:51:23.240Z,29.83
2022-07-31T08:53:49.684Z,30.09
2022-07-31T08:56:16.048Z,30.35
2022-07-31T08:58:42.459Z,30.56
2022-07-31T09:01:08.991Z,30.54
2022-07-31T09:03:35.275Z,30.55
2022-07-31T09:06:01.684Z,30.77
2022-07-31T09:08:28.044Z,30.63
2022-07-31T09:10:54.507Z,30.40
2022-07-31T09:13:20.886Z,30.12
2022-07-31T09:15:47.375Z,30.18
2022-07-31T09:18:13.753Z,30.14
2022-07-31T09:20:40.146Z,30.34
2022-07-31T09:23:06.550Z,30.29
2022-07-31T09:25:33.011Z,30.07
2022-07-31T09:27:59.414Z,29.87
2022-07-31T09:30:25.784Z,29.60
2022-07-31T09:32:52.170Z,29.52
2022-07-31T09:35:18.630Z,29.54
2022-07-31T09:37:44.971Z,29.59
2022-07-31T09:40:11.361Z,29.61
2022-07-31T09:42:38.210Z,29.70
2022-07-31T09:45:04.204Z,29.56
2022-07-31T09:47:30.635Z,29.49
2022-07-31T09:49:57.129Z,29.37
2022-07-31T09:52:23.495Z,29.32
2022-07-31T09:54:49.895Z,29.26
2022-07-31T09:57:16.253Z,29.20
2022-07-31T09:59:42.638Z,29.15
2022-07-31T10:02:09.051Z,28.98
2022-07-31T10:04:35.420Z,28.91
2022-07-31T10:07:02.116Z,28.89
2022-07-31T10:09:28.285Z,28.94
2022-07-31T10:11:54.645Z,29.04
2022-07-31T10:14:21.034Z,29.31
2022-07-31T10:16:47.431Z,29.56
2022-07-31T10:19:13.918Z,29.82
2022-07-31T10:21:40.277Z,30.03
2022-07-31T10:24:06.704Z,30.30
2022-07-31T10:26:57.805Z,30.50
2022-07-31T10:28:59.546Z,30.59
2022-07-31T10:31:25.978Z,30.63
2022-07-31T10:33:52.348Z,30.76
2022-07-31T10:36:18.840Z,30.85
2022-07-31T10:38:45.206Z,30.87
2022-07-31T10:41:11.637Z,30.83
2022-07-31T10:43:38.006Z,30.83
2022-07-31T10:46:04.364Z,30.78
2022-07-31T10:48:30.798Z,30.77
2022-07-31T10:50:57.158Z,30.80
2022-07-31T10:53:50.096Z,30.81
2022-07-31T10:55:49.993Z,30.86
2022-07-31T10:58:16.379Z,30.82
2022-07-31T11:00:42.758Z,30.91
2022-07-31T11:03:11.896Z,30.93
2022-07-31T11:06:01.518Z,31.01
2022-07-31T11:08:01.880Z,31.19
2022-07-31T11:10:28.264Z,31.34
2022-07-31T11:12:54.645Z,31.29
2022-07-31T11:15:21.011Z,31.22
2022-07-31T11:18:23.397Z,31.14
2022-07-31T11:20:13.821Z,31.12
2022-07-31T11:22:40.189Z,31.26
2022-07-31T11:25:06.548Z,31.27
2022-07-31T11:27:32.949Z,31.29
2022-07-31T11:30:04.130Z,31.22
2022-07-31T11:32:26.604Z,31.22
2022-07-31T11:34:52.134Z,31.12
2022-07-31T11:37:18.479Z,31.00
2022-07-31T11:39:51.353Z,30.87
2022-07-31T11:42:11.252Z,30.71
2022-07-31T11:44:37.614Z,30.72
2022-07-31T11:47:04.298Z,30.77
2022-07-31T11:49:48.174Z,30.85
2022-07-31T11:51:56.742Z,30.89
2022-07-31T11:54:23.126Z,30.94
2022-07-31T11:56:49.491Z,30.97
2022-07-31T11:59:44.919Z,30.96
2022-07-31T12:01:42.249Z,30.95
2022-07-31T12:04:09.142Z,30.96
2022-07-31T12:06:36.422Z,30.94
2022-07-31T12:09:01.386Z,30.92
2022-07-31T12:11:27.769Z,30.93
2022-07-31T12:13:54.133Z,30.86
2022-07-31T12:16:20.553Z,30.87
2022-07-31T12:18:46.931Z,30.88
2022-07-31T12:21:13.418Z,31.05
2022-07-31T12:23:40.428Z,31.08
2022-07-31T12:26:06.153Z,30.93
2022-07-31T12:28:32.568Z,30.85
2022-07-31T12:30:58.961Z,30.89
2022-07-31T12:33:25.403Z,30.85
2022-07-31T12:35:55.974Z,30.83
2022-07-31T12:38:37.702Z,30.79
2022-07-31T12:40:44.551Z,30.91
2022-07-31T12:43:10.935Z,31.07
2022-07-31T12:45:37.329Z,31.37
2022-07-31T12:48:03.768Z,31.54
2022-07-31T12:50:30.158Z,31.63
2022-07-31T12:52:56.554Z,31.57
2022-07-31T12:55:22.917Z,31.27
2022-07-31T12:57:50.706Z,31.11
2022-07-31T13:00:15.700Z,31.06
2022-07-31T13:02:42.085Z,30.91
2022-07-31T13:05:08.455Z,30.68
2022-07-31T13:07:34.854Z,30.56
2022-07-31T13:10:20.822Z,30.40
2022-07-31T13:12:27.620Z,30.26
2022-07-31T13:14:54.047Z,30.22
2022-07-31T13:17:20.409Z,30.10
2022-07-31T13:19:46.889Z,30.01
2022-07-31T13:22:13.328Z,29.88
2022-07-31T13:24:39.750Z,29.90
2022-07-31T13:27:06.489Z,29.79
2022-07-31T13:29:32.479Z,29.80
2022-07-31T13:31:58.852Z,29.77
2022-07-31T13:34:25.227Z,29.77
2022-07-31T13:36:51.589Z,29.70
2022-07-31T13:39:17.955Z,29.68
2022-07-31T13:41:44.317Z,29.69
2022-07-31T13:44:10.815Z,29.73
2022-07-31T13:46:37.179Z,29.72
2022-07-31T13:49:03.706Z,29.65
2022-07-31T13:51:30.158Z,29.72
2022-07-31T13:53:56.440Z,29.64
2022-07-31T13:56:39.375Z,29.60
2022-07-31T13:58:49.309Z,29.50
2022-07-31T14:01:15.719Z,29.42
2022-07-31T14:03:42.162Z,29.26
2022-07-31T14:06:08.558Z,29.25
2022-07-31T14:08:49.661Z,29.24
2022-07-31T14:11:01.469Z,29.11
2022-07-31T14:13:28.162Z,29.02
2022-07-31T14:15:54.529Z,29.04
2022-07-31T14:18:20.972Z,29.09
2022-07-31T14:20:47.353Z,29.15
2022-07-31T14:23:13.790Z,29.10
2022-07-31T14:25:40.169Z,29.04
2022-07-31T14:28:06.570Z,29.06
2022-07-31T14:30:32.939Z,29.07
2022-07-31T14:32:59.299Z,29.08
2022-07-31T14:35:25.694Z,29.05
2022-07-31T14:37:52.057Z,29.08
2022-07-31T14:40:18.472Z,29.09
2022-07-31T14:42:44.902Z,29.05
2022-07-31T14:45:11.301Z,28.97
2022-07-31T14:47:37.667Z,28.91
2022-07-31T14:50:08.853Z,28.87
2022-07-31T14:52:30.562Z,28.82
2022-07-31T14:54:56.900Z,28.76
2022-07-31T14:57:23.304Z,28.77
2022-07-31T14:59:49.666Z,28.75
2022-07-31T15:02:21.488Z,28.71
2022-07-31T15:04:42.498Z,28.70
2022-07-31T15:07:33.647Z,28.69
2022-07-31T15:09:35.280Z,28.63
2022-07-31T15:12:02.112Z,28.59
2022-07-31T15:14:28.016Z,28.58
2022-07-31T15:16:54.389Z,28.57
2022-07-31T15:19:20.788Z,28.59
2022-07-31T15:22:10.210Z,28.58
2022-07-31T15:24:13.586Z,28.56
2022-07-31T15:26:39.943Z,28.56
2022-07-31T15:29:06.425Z,28.56
2022-07-31T15:31:32.802Z,28.55
2022-07-31T15:33:59.174Z,28.56
2022-07-31T15:36:25.543Z,28.57
2022-07-31T15:38:51.947Z,28.57
2022-07-31T15:41:18.851Z,28.64
2022-07-31T15:43:44.777Z,28.67
2022-07-31T15:46:11.154Z,28.58
2022-07-31T15:48:37.520Z,28.58
2022-07-31T15:51:03.906Z,28.59
2022-07-31T15:53:30.253Z,28.59
2022-07-31T15:55:56.634Z,28.56
2022-07-31T15:58:23.026Z,28.51
2022-07-31T16:00:50.385Z,28.50
2022-07-31T16:03:18.001Z,28.48
2022-07-31T16:05:43.133Z,28.46
2022-07-31T16:08:30.276Z,28.44
2022-07-31T16:10:38.044Z,28.41
2022-07-31T16:13:04.566Z,28.48
2022-07-31T16:15:30.944Z,28.40
2022-07-31T16:17:57.432Z,28.34
2022-07-31T16:20:26.067Z,28.34
2022-07-31T16:22:54.239Z,28.36
2022-07-31T16:25:16.655Z,28.31
2022-07-31T16:27:43.064Z,28.34
2022-07-31T16:30:09.433Z,28.29
2022-07-31T16:32:35.852Z,28.27
2022-07-31T16:35:02.258Z,28.29
2022-07-31T16:37:51.680Z,28.25
2022-07-31T16:39:55.014Z,28.25
2022-07-31T16:42:21.415Z,28.27
2022-07-31T16:44:47.887Z,28.25
2022-07-31T16:47:14.259Z,28.24
2022-07-31T16:49:40.797Z,28.22
2022-07-31T16:52:07.156Z,28.17
2022-07-31T16:54:33.547Z,28.15
2022-07-31T16:56:59.952Z,28.12
2022-07-31T16:59:26.385Z,28.12
2022-07-31T17:02:01.445Z,28.08
2022-07-31T17:04:27.531Z,28.02
2022-07-31T17:06:53.920Z,27.98
2022-07-31T17:09:21.205Z,27.96
2022-07-31T17:11:47.992Z,27.94
2022-07-31T17:14:14.409Z,27.92
2022-07-31T17:16:46.336Z,27.91
2022-07-31T17:19:07.279Z,27.88
2022-07-31T17:21:33.688Z,27.87
2022-07-31T17:24:00.054Z,27.84
2022-07-31T17:26:26.433Z,27.83
2022-07-31T17:28:52.865Z,27.79
2022-07-31T17:31:19.343Z,27.76
2022-07-31T17:33:58.434Z,27.71
2022-07-31T17:36:12.185Z,27.68
2022-07-31T17:38:38.544Z,27.66
2022-07-31T17:41:05.067Z,27.60
2022-07-31T17:43:31.425Z,27.56
2022-07-31T17:46:05.321Z,27.53
2022-07-31T17:48:24.468Z,27.52
2022-07-31T17:50:54.115Z,27.48
2022-07-31T17:53:17.334Z,27.43
2022-07-31T17:55:43.702Z,27.39
2022-07-31T17:58:10.210Z,27.36
2022-07-31T18:00:36.573Z,27.34
2022-07-31T18:03:02.931Z,27.28
2022-07-31T18:05:29.330Z,27.27
2022-07-31T18:07:55.725Z,27.26
2022-07-31T18:10:38.599Z,27.25
2022-07-31T18:12:57.484Z,27.23
2022-07-31T18:15:14.935Z,27.23
2022-07-31T18:17:41.297Z,27.20
2022-07-31T18:20:07.671Z,27.18
2022-07-31T18:22:35.102Z,27.16
2022-07-31T18:25:00.518Z,27.12
2022-07-31T18:27:26.882Z,27.09
2022-07-31T18:29:56.095Z,27.08
2022-07-31T18:32:19.637Z,27.04
2022-07-31T18:34:46.021Z,27.02
2022-07-31T18:37:12.401Z,27.00
2022-07-31T18:39:48.706Z,26.98
2022-07-31T18:42:05.441Z,26.98
2022-07-31T18:44:31.632Z,26.97
2022-07-31T18:46:58.190Z,26.97
2022-07-31T18:51:00.224Z,26.94
2022-07-31T18:51:50.991Z,26.92
2022-07-31T18:54:17.413Z,26.89
2022-07-31T18:56:43.777Z,26.87
2022-07-31T18:59:10.173Z,26.86
2022-07-31T19:01:36.626Z,26.84
2022-07-31T19:04:03.068Z,26.83
2022-07-31T19:06:29.426Z,26.80
2022-07-31T19:08:55.793Z,26.76
2022-07-31T19:11:22.176Z,26.77
2022-07-31T19:13:48.707Z,26.74
2022-07-31T19:16:15.939Z,26.73
2022-07-31T19:18:41.434Z,26.74
2022-07-31T19:21:23.086Z,26.73
2022-07-31T19:23:34.193Z,26.70
2022-07-31T19:26:03.661Z,26.65
2022-07-31T19:28:27.313Z,26.67
2022-07-31T19:30:53.466Z,26.69
2022-07-31T19:33:19.959Z,26.66
2022-07-31T19:35:56.981Z,26.62
2022-07-31T19:38:12.829Z,26.61
2022-07-31T19:40:39.266Z,26.55
2022-07-31T19:43:05.697Z,26.51
2022-07-31T19:45:32.052Z,26.56
2022-07-31T19:47:58.417Z,26.54
2022-07-31T19:50:24.818Z,26.55
2022-07-31T19:52:51.221Z,26.52
2022-07-31T19:55:17.577Z,26.51
2022-07-31T19:57:44.086Z,26.46
2022-07-31T20:00:10.448Z,26.43
2022-07-31T20:02:36.832Z,26.44
2022-07-31T20:05:03.199Z,26.42
2022-07-31T20:07:32.703Z,26.40
2022-07-31T20:09:56.047Z,26.37
2022-07-31T20:12:22.418Z,26.36
2022-07-31T20:14:48.819Z,26.30
2022-07-31T20:17:15.207Z,26.24
2022-07-31T20:20:04.686Z,26.19
2022-07-31T20:22:08.060Z,26.21
2022-07-31T20:24:34.330Z,26.22
2022-07-31T20:27:00.801Z,26.26
2022-07-31T20:29:27.304Z,26.23
2022-07-31T20:31:53.673Z,26.22
2022-07-31T20:34:20.069Z,26.22
2022-07-31T20:36:46.475Z,26.18
2022-07-31T20:39:12.839Z,26.19
2022-07-31T20:41:39.202Z,26.09
2022-07-31T20:44:05.573Z,26.05
2022-07-31T20:46:32.026Z,26.02
2022-07-31T20:48:58.442Z,25.98
2022-07-31T20:51:24.759Z,25.92
2022-07-31T20:53:51.219Z,25.87
2022-07-31T20:56:17.656Z,25.88
2022-07-31T20:58:49.469Z,25.84
2022-07-31T21:01:10.766Z,25.83
2022-07-31T21:03:36.991Z,25.86
2022-07-31T21:06:03.398Z,25.90
2022-07-31T21:08:29.789Z,25.92
2022-07-31T21:10:56.258Z,25.91
2022-07-31T21:13:22.640Z,25.86
2022-07-31T21:15:49.006Z,25.81
2022-07-31T21:18:15.479Z,25.83
2022-07-31T21:20:49.874Z,25.85
2022-07-31T21:23:08.265Z,25.83
2022-07-31T21:25:34.755Z,25.79
2022-07-31T21:28:01.187Z,25.80
2022-07-31T21:30:27.622Z,25.75
2022-07-31T21:32:53.981Z,25.74
2022-07-31T21:35:36.342Z,25.76
2022-07-31T21:37:46.821Z,25.80
2022-07-31T21:40:13.256Z,25.84
2022-07-31T21:42:41.954Z,25.81
2022-07-31T21:45:06.015Z,25.82
2022-07-31T21:47:52.982Z,25.82
2022-07-31T21:49:58.828Z,25.82
2022-07-31T21:52:25.213Z,25.78
2022-07-31T21:54:51.644Z,25.82
2022-07-31T21:57:18.076Z,25.86
2022-07-31T21:59:44.512Z,25.88
2022-07-31T22:02:11.124Z,25.84
2022-07-31T22:04:37.267Z,25.85
2022-07-31T22:07:03.651Z,25.87
2022-07-31T22:09:30.073Z,25.87
2022-07-31T22:12:05.773Z,25.88
2022-07-31T22:14:22.864Z,25.85
2022-07-31T22:16:49.337Z,25.79
2022-07-31T22:19:15.772Z,25.77
2022-07-31T22:21:42.132Z,25.80
2022-07-31T22:24:08.536Z,25.78
2022-07-31T22:26:35.030Z,25.68
2022-07-31T22:29:01.401Z,25.64
2022-07-31T22:31:27.756Z,25.61
2022-07-31T22:33:54.166Z,25.61
2022-07-31T22:36:20.741Z,25.66
2022-07-31T22:38:47.112Z,25.66
2022-07-31T22:41:13.485Z,25.63
2022-07-31T22:44:12.756Z,25.52
2022-07-31T22:46:06.259Z,25.39
2022-07-31T22:48:32.667Z,25.25
2022-07-31T22:50:59.025Z,25.20
2022-07-31T22:53:25.523Z,25.18
2022-07-31T22:55:51.902Z,25.21
2022-07-31T22:58:18.265Z,25.18
2022-07-31T23:00:44.635Z,25.14
2022-07-31T23:03:11.055Z,25.06
2022-07-31T23:06:28.110Z,24.98
2022-07-31T23:08:03.820Z,24.84
2022-07-31T23:10:30.176Z,24.76
2022-07-31T23:12:56.588Z,24.73
2022-07-31T23:15:22.956Z,24.68
2022-07-31T23:17:49.320Z,24.65
2022-07-31T23:20:15.777Z,24.66
2022-07-31T23:22:42.212Z,24.78
2022-07-31T23:25:08.568Z,24.81
2022-07-31T23:27:34.955Z,24.84
2022-07-31T23:30:01.317Z,24.91
2022-07-31T23:32:27.841Z,24.99
2022-07-31T23:34:54.218Z,25.03
2022-07-31T23:37:20.609Z,25.03
2022-07-31T23:39:47.023Z,25.08
2022-07-31T23:42:13.456Z,25.05
2022-07-31T23:44:41.007Z,25.12
2022-07-31T23:47:06.190Z,25.09
2022-07-31T23:49:32.625Z,25.04
2022-07-31T23:51:59.000Z,25.04
2022-07-31T23:54:25.356Z,24.97
2022-07-31T23:56:51.763Z,24.95
2022-07-31T23:59:18.142Z,24.92
